VABB/BOM METAR and TAF weather

Enter ICAO airport designator
Station Type Date Time Source
VABB METAR 2021/04/14 19:00 UTC NOAA

VABB 141900Z 19003KT 3000 HZ FEW020 29/25 Q1010 NOSIG


Station Type Date Time Source
VABB Decoded METAR 2021/04/14 19:00 UTC NOAA

Bombay / Santacruz, India (VABB) 19-07N 072-51E 14M
Apr 14, 2021 - 03:00 PM EDT / 2021.04.14 1900 UTC
Wind: from the S (190 degrees) at 3 MPH (3 KT):0
Visibility: 1 mile(s):0
Sky conditions: mostly clear
Weather: haze
Temperature: 84 F (29 C)
Dew Point: 77 F (25 C)
Relative Humidity: 79%
Pressure (altimeter): 29.83 in. Hg (1010 hPa)
ob: VABB 141900Z 19003KT 3000 HZ FEW020 29/25 Q1010 NOSIG
cycle: 19

Station Type Date Time Source
VABB TAF 2021/04/14 18:57 UTC NOAA

TAF TAF VABB 141700Z 1418/1524 24005KT 3000 HZ SCT020
BECMG 1421/1423 12005KT 2500 HZ
BECMG 1506/1508 27012KT 3000 HZ FU
BECMG 1509/1511 4000 FU SCT020 SCT100
TEMPO 1512/1516 2500 -DZ SCT018 BKN090
BECMG 1513/1515 22005KT 3000 HZ SCT020
BECMG 1521/1523 11005KT 2500 HZ

Example: see airport list